sensor_id;sensor_type;location;lat;lon;timestamp;P1;durP1;ratioP1;P2;durP2;ratioP2
31210;SDS011;17836;50.948;3.946;2023-03-31T00:00:13;16.27;;;3.77;;
31210;SDS011;17836;50.948;3.946;2023-03-31T00:02:39;15.05;;;3.20;;
31210;SDS011;17836;50.948;3.946;2023-03-31T00:05:06;13.23;;;3.17;;
31210;SDS011;17836;50.948;3.946;2023-03-31T00:07:31;17.02;;;3.60;;
31210;SDS011;17836;50.948;3.946;2023-03-31T00:10:02;15.00;;;3.85;;
31210;SDS011;17836;50.948;3.946;2023-03-31T00:12:28;18.20;;;4.10;;
31210;SDS011;17836;50.948;3.946;2023-03-31T00:14:53;20.87;;;4.13;;
31210;SDS011;17836;50.948;3.946;2023-03-31T00:17:20;17.17;;;4.22;;
31210;SDS011;17836;50.948;3.946;2023-03-31T00:19:46;21.77;;;3.83;;
31210;SDS011;17836;50.948;3.946;2023-03-31T00:22:14;14.23;;;3.72;;
31210;SDS011;17836;50.948;3.946;2023-03-31T00:24:45;16.67;;;3.00;;
31210;SDS011;17836;50.948;3.946;2023-03-31T00:27:10;17.20;;;2.95;;
31210;SDS011;17836;50.948;3.946;2023-03-31T00:29:38;13.75;;;3.30;;
31210;SDS011;17836;50.948;3.946;2023-03-31T00:32:06;14.95;;;3.35;;
31210;SDS011;17836;50.948;3.946;2023-03-31T00:34:31;14.73;;;3.25;;
31210;SDS011;17836;50.948;3.946;2023-03-31T00:36:56;15.73;;;3.95;;
31210;SDS011;17836;50.948;3.946;2023-03-31T00:39:26;15.75;;;3.47;;
31210;SDS011;17836;50.948;3.946;2023-03-31T00:41:55;17.70;;;4.43;;
31210;SDS011;17836;50.948;3.946;2023-03-31T00:44:21;14.20;;;2.92;;
31210;SDS011;17836;50.948;3.946;2023-03-31T00:46:52;15.57;;;2.85;;
31210;SDS011;17836;50.948;3.946;2023-03-31T00:51:56;13.68;;;3.05;;
31210;SDS011;17836;50.948;3.946;2023-03-31T00:54:24;16.42;;;3.03;;
31210;SDS011;17836;50.948;3.946;2023-03-31T00:56:50;11.80;;;2.70;;
31210;SDS011;17836;50.948;3.946;2023-03-31T00:59:23;13.48;;;2.92;;
31210;SDS011;17836;50.948;3.946;2023-03-31T01:01:51;9.43;;;2.65;;
31210;SDS011;17836;50.948;3.946;2023-03-31T01:04:23;11.82;;;2.53;;
31210;SDS011;17836;50.948;3.946;2023-03-31T01:06:59;11.52;;;2.70;;
31210;SDS011;17836;50.948;3.946;2023-03-31T01:09:29;10.50;;;2.65;;
31210;SDS011;17836;50.948;3.946;2023-03-31T01:11:58;14.98;;;3.47;;
31210;SDS011;17836;50.948;3.946;2023-03-31T01:14:25;19.10;;;3.38;;
31210;SDS011;17836;50.948;3.946;2023-03-31T01:16:50;12.15;;;2.55;;
31210;SDS011;17836;50.948;3.946;2023-03-31T01:19:23;15.02;;;2.92;;
31210;SDS011;17836;50.948;3.946;2023-03-31T01:50:30;12.63;;;2.75;;
31210;SDS011;17836;50.948;3.946;2023-03-31T01:53:01;8.38;;;2.20;;
31210;SDS011;17836;50.948;3.946;2023-03-31T01:55:34;11.25;;;2.80;;
31210;SDS011;17836;50.948;3.946;2023-03-31T02:00:37;10.05;;;2.42;;
31210;SDS011;17836;50.948;3.946;2023-03-31T02:03:17;11.35;;;2.47;;
31210;SDS011;17836;50.948;3.946;2023-03-31T02:05:57;11.35;;;2.58;;
31210;SDS011;17836;50.948;3.946;2023-03-31T02:08:25;12.35;;;3.25;;
31210;SDS011;17836;50.948;3.946;2023-03-31T02:10:53;11.05;;;2.53;;
31210;SDS011;17836;50.948;3.946;2023-03-31T02:13:19;6.80;;;2.00;;
31210;SDS011;17836;50.948;3.946;2023-03-31T02:15:47;12.13;;;2.65;;
31210;SDS011;17836;50.948;3.946;2023-03-31T02:18:15;10.77;;;2.45;;
31210;SDS011;17836;50.948;3.946;2023-03-31T02:20:45;11.55;;;2.35;;
31210;SDS011;17836;50.948;3.946;2023-03-31T02:23:14;8.45;;;2.53;;
31210;SDS011;17836;50.948;3.946;2023-03-31T02:25:41;11.93;;;3.33;;
31210;SDS011;17836;50.948;3.946;2023-03-31T02:28:15;9.43;;;2.15;;
31210;SDS011;17836;50.948;3.946;2023-03-31T02:30:45;12.65;;;3.03;;
31210;SDS011;17836;50.948;3.946;2023-03-31T02:33:13;12.10;;;2.97;;
31210;SDS011;17836;50.948;3.946;2023-03-31T02:35:39;12.35;;;2.40;;
31210;SDS011;17836;50.948;3.946;2023-03-31T02:38:05;13.20;;;2.60;;
31210;SDS011;17836;50.948;3.946;2023-03-31T02:40:31;9.23;;;2.00;;
31210;SDS011;17836;50.948;3.946;2023-03-31T02:42:58;10.02;;;2.50;;
31210;SDS011;17836;50.948;3.946;2023-03-31T02:45:50;20.10;;;3.28;;
31210;SDS011;17836;50.948;3.946;2023-03-31T02:48:17;12.38;;;2.65;;
31210;SDS011;17836;50.948;3.946;2023-03-31T02:50:55;10.20;;;2.78;;
31210;SDS011;17836;50.948;3.946;2023-03-31T02:58:44;6.63;;;2.03;;
31210;SDS011;17836;50.948;3.946;2023-03-31T03:06:25;6.25;;;1.80;;
31210;SDS011;17836;50.948;3.946;2023-03-31T03:14:16;4.70;;;1.40;;
31210;SDS011;17836;50.948;3.946;2023-03-31T03:16:47;5.00;;;1.13;;
31210;SDS011;17836;50.948;3.946;2023-03-31T03:19:17;5.43;;;1.38;;
31210;SDS011;17836;50.948;3.946;2023-03-31T03:21:46;4.10;;;1.38;;
31210;SDS011;17836;50.948;3.946;2023-03-31T03:24:12;4.57;;;1.23;;
31210;SDS011;17836;50.948;3.946;2023-03-31T03:26:38;3.50;;;0.85;;
31210;SDS011;17836;50.948;3.946;2023-03-31T03:29:04;2.90;;;0.77;;
31210;SDS011;17836;50.948;3.946;2023-03-31T03:31:29;4.53;;;1.27;;
31210;SDS011;17836;50.948;3.946;2023-03-31T03:33:54;2.38;;;0.80;;
31210;SDS011;17836;50.948;3.946;2023-03-31T03:36:22;2.00;;;0.80;;
31210;SDS011;17836;50.948;3.946;2023-03-31T03:38:47;2.60;;;0.68;;
31210;SDS011;17836;50.948;3.946;2023-03-31T03:41:13;0.77;;;0.60;;
31210;SDS011;17836;50.948;3.946;2023-03-31T03:43:38;1.87;;;0.77;;
31210;SDS011;17836;50.948;3.946;2023-03-31T03:46:03;2.53;;;0.63;;
31210;SDS011;17836;50.948;3.946;2023-03-31T03:48:31;1.70;;;0.43;;
31210;SDS011;17836;50.948;3.946;2023-03-31T03:50:58;1.27;;;0.60;;
31210;SDS011;17836;50.948;3.946;2023-03-31T03:53:23;0.98;;;0.60;;
31210;SDS011;17836;50.948;3.946;2023-03-31T03:55:48;2.35;;;0.47;;
31210;SDS011;17836;50.948;3.946;2023-03-31T03:58:14;4.90;;;0.60;;
31210;SDS011;17836;50.948;3.946;2023-03-31T04:00:40;1.90;;;0.68;;
31210;SDS011;17836;50.948;3.946;2023-03-31T04:03:08;1.75;;;0.60;;
31210;SDS011;17836;50.948;3.946;2023-03-31T04:05:36;3.43;;;0.93;;
31210;SDS011;17836;50.948;3.946;2023-03-31T04:08:01;1.48;;;0.50;;
31210;SDS011;17836;50.948;3.946;2023-03-31T04:10:29;2.15;;;0.50;;
31210;SDS011;17836;50.948;3.946;2023-03-31T04:12:54;4.45;;;0.80;;
31210;SDS011;17836;50.948;3.946;2023-03-31T04:15:19;2.23;;;1.13;;
31210;SDS011;17836;50.948;3.946;2023-03-31T04:17:45;3.50;;;0.77;;
31210;SDS011;17836;50.948;3.946;2023-03-31T04:20:15;5.55;;;1.10;;
31210;SDS011;17836;50.948;3.946;2023-03-31T04:22:40;1.92;;;0.65;;
31210;SDS011;17836;50.948;3.946;2023-03-31T04:25:06;2.47;;;1.00;;
31210;SDS011;17836;50.948;3.946;2023-03-31T04:27:42;3.67;;;0.93;;
31210;SDS011;17836;50.948;3.946;2023-03-31T04:30:13;4.60;;;1.17;;
31210;SDS011;17836;50.948;3.946;2023-03-31T04:32:54;6.22;;;1.05;;
31210;SDS011;17836;50.948;3.946;2023-03-31T04:35:22;3.38;;;1.10;;
31210;SDS011;17836;50.948;3.946;2023-03-31T04:37:48;4.68;;;1.05;;
31210;SDS011;17836;50.948;3.946;2023-03-31T04:40:14;4.53;;;1.00;;
31210;SDS011;17836;50.948;3.946;2023-03-31T04:42:40;3.47;;;1.10;;
31210;SDS011;17836;50.948;3.946;2023-03-31T04:45:06;5.30;;;1.33;;
31210;SDS011;17836;50.948;3.946;2023-03-31T04:47:31;6.30;;;1.50;;
31210;SDS011;17836;50.948;3.946;2023-03-31T04:49:56;5.18;;;1.42;;
31210;SDS011;17836;50.948;3.946;2023-03-31T04:52:22;6.80;;;1.48;;
31210;SDS011;17836;50.948;3.946;2023-03-31T04:54:47;8.33;;;1.57;;
31210;SDS011;17836;50.948;3.946;2023-03-31T04:57:12;4.83;;;1.80;;
31210;SDS011;17836;50.948;3.946;2023-03-31T04:59:37;5.47;;;1.30;;
31210;SDS011;17836;50.948;3.946;2023-03-31T05:02:03;9.53;;;1.70;;
31210;SDS011;17836;50.948;3.946;2023-03-31T05:04:31;10.70;;;2.30;;
31210;SDS011;17836;50.948;3.946;2023-03-31T05:06:56;8.30;;;2.20;;
31210;SDS011;17836;50.948;3.946;2023-03-31T05:09:21;8.02;;;2.25;;
31210;SDS011;17836;50.948;3.946;2023-03-31T05:11:46;18.00;;;3.50;;
31210;SDS011;17836;50.948;3.946;2023-03-31T05:14:12;8.18;;;2.55;;
31210;SDS011;17836;50.948;3.946;2023-03-31T05:16:37;6.80;;;2.20;;
31210;SDS011;17836;50.948;3.946;2023-03-31T05:19:02;11.98;;;2.50;;
31210;SDS011;17836;50.948;3.946;2023-03-31T05:21:28;11.15;;;2.85;;
31210;SDS011;17836;50.948;3.946;2023-03-31T05:23:54;6.68;;;2.40;;
31210;SDS011;17836;50.948;3.946;2023-03-31T05:26:20;14.85;;;2.67;;
31210;SDS011;17836;50.948;3.946;2023-03-31T05:28:49;13.35;;;3.13;;
31210;SDS011;17836;50.948;3.946;2023-03-31T05:31:16;14.77;;;3.15;;
31210;SDS011;17836;50.948;3.946;2023-03-31T05:33:42;13.80;;;2.78;;
31210;SDS011;17836;50.948;3.946;2023-03-31T05:36:08;14.32;;;3.08;;
31210;SDS011;17836;50.948;3.946;2023-03-31T05:38:34;16.95;;;3.33;;
31210;SDS011;17836;50.948;3.946;2023-03-31T05:40:59;12.27;;;3.53;;
31210;SDS011;17836;50.948;3.946;2023-03-31T05:43:25;12.48;;;3.25;;
31210;SDS011;17836;50.948;3.946;2023-03-31T05:45:50;17.27;;;3.13;;
31210;SDS011;17836;50.948;3.946;2023-03-31T05:48:15;14.18;;;3.58;;
31210;SDS011;17836;50.948;3.946;2023-03-31T05:50:42;10.65;;;2.80;;
31210;SDS011;17836;50.948;3.946;2023-03-31T05:53:08;9.77;;;3.38;;
31210;SDS011;17836;50.948;3.946;2023-03-31T05:55:36;12.15;;;3.08;;
31210;SDS011;17836;50.948;3.946;2023-03-31T05:58:01;16.13;;;3.30;;
31210;SDS011;17836;50.948;3.946;2023-03-31T06:00:26;14.57;;;3.58;;
31210;SDS011;17836;50.948;3.946;2023-03-31T06:02:54;19.35;;;3.08;;
31210;SDS011;17836;50.948;3.946;2023-03-31T06:05:20;17.33;;;3.08;;
31210;SDS011;17836;50.948;3.946;2023-03-31T06:07:47;15.82;;;3.08;;
31210;SDS011;17836;50.948;3.946;2023-03-31T06:10:12;10.90;;;2.93;;
31210;SDS011;17836;50.948;3.946;2023-03-31T06:12:37;9.82;;;2.88;;
31210;SDS011;17836;50.948;3.946;2023-03-31T06:15:02;10.35;;;3.30;;
31210;SDS011;17836;50.948;3.946;2023-03-31T06:17:28;23.98;;;3.95;;
31210;SDS011;17836;50.948;3.946;2023-03-31T06:19:53;18.43;;;4.40;;
31210;SDS011;17836;50.948;3.946;2023-03-31T06:22:18;13.13;;;3.63;;
31210;SDS011;17836;50.948;3.946;2023-03-31T06:24:48;17.70;;;3.33;;
31210;SDS011;17836;50.948;3.946;2023-03-31T06:27:14;12.52;;;3.45;;
31210;SDS011;17836;50.948;3.946;2023-03-31T06:29:39;13.32;;;3.95;;
31210;SDS011;17836;50.948;3.946;2023-03-31T06:32:05;13.65;;;3.42;;
31210;SDS011;17836;50.948;3.946;2023-03-31T06:34:30;15.05;;;3.72;;
31210;SDS011;17836;50.948;3.946;2023-03-31T06:36:55;14.97;;;3.37;;
31210;SDS011;17836;50.948;3.946;2023-03-31T06:39:20;14.88;;;4.13;;
31210;SDS011;17836;50.948;3.946;2023-03-31T06:41:46;19.30;;;3.83;;
31210;SDS011;17836;50.948;3.946;2023-03-31T06:44:11;16.03;;;3.37;;
31210;SDS011;17836;50.948;3.946;2023-03-31T06:46:36;16.83;;;4.15;;
31210;SDS011;17836;50.948;3.946;2023-03-31T06:49:02;18.57;;;4.03;;
31210;SDS011;17836;50.948;3.946;2023-03-31T06:51:29;24.80;;;4.70;;
31210;SDS011;17836;50.948;3.946;2023-03-31T06:53:54;15.38;;;3.22;;
31210;SDS011;17836;50.948;3.946;2023-03-31T06:56:20;17.63;;;4.03;;
31210;SDS011;17836;50.948;3.946;2023-03-31T06:58:45;20.60;;;4.15;;
31210;SDS011;17836;50.948;3.946;2023-03-31T07:01:11;18.50;;;4.40;;
31210;SDS011;17836;50.948;3.946;2023-03-31T07:03:36;20.63;;;3.85;;
31210;SDS011;17836;50.948;3.946;2023-03-31T07:06:04;17.27;;;4.45;;
31210;SDS011;17836;50.948;3.946;2023-03-31T07:08:29;18.75;;;4.90;;
31210;SDS011;17836;50.948;3.946;2023-03-31T07:10:56;16.02;;;4.50;;
31210;SDS011;17836;50.948;3.946;2023-03-31T07:13:22;14.52;;;4.78;;
31210;SDS011;17836;50.948;3.946;2023-03-31T07:15:48;18.02;;;4.05;;
31210;SDS011;17836;50.948;3.946;2023-03-31T07:18:14;20.75;;;5.15;;
31210;SDS011;17836;50.948;3.946;2023-03-31T07:20:40;25.35;;;5.32;;
31210;SDS011;17836;50.948;3.946;2023-03-31T07:23:06;24.13;;;4.05;;
31210;SDS011;17836;50.948;3.946;2023-03-31T07:25:32;14.77;;;4.63;;
31210;SDS011;17836;50.948;3.946;2023-03-31T07:27:58;18.27;;;4.57;;
31210;SDS011;17836;50.948;3.946;2023-03-31T07:30:25;14.03;;;3.67;;
31210;SDS011;17836;50.948;3.946;2023-03-31T07:32:51;24.00;;;4.80;;
31210;SDS011;17836;50.948;3.946;2023-03-31T07:35:17;31.63;;;4.85;;
31210;SDS011;17836;50.948;3.946;2023-03-31T07:37:43;19.15;;;5.13;;
31210;SDS011;17836;50.948;3.946;2023-03-31T07:40:10;27.65;;;4.95;;
31210;SDS011;17836;50.948;3.946;2023-03-31T07:42:36;22.15;;;4.55;;
31210;SDS011;17836;50.948;3.946;2023-03-31T07:45:01;18.83;;;5.10;;
31210;SDS011;17836;50.948;3.946;2023-03-31T07:47:27;23.55;;;4.05;;
31210;SDS011;17836;50.948;3.946;2023-03-31T07:49:52;15.07;;;3.58;;
31210;SDS011;17836;50.948;3.946;2023-03-31T07:52:18;18.80;;;5.07;;
31210;SDS011;17836;50.948;3.946;2023-03-31T07:54:44;15.40;;;3.90;;
31210;SDS011;17836;50.948;3.946;2023-03-31T07:57:09;15.70;;;3.60;;
31210;SDS011;17836;50.948;3.946;2023-03-31T07:59:37;17.97;;;3.90;;
31210;SDS011;17836;50.948;3.946;2023-03-31T08:02:02;16.88;;;4.78;;
31210;SDS011;17836;50.948;3.946;2023-03-31T08:04:30;16.92;;;3.65;;
31210;SDS011;17836;50.948;3.946;2023-03-31T08:06:55;19.02;;;3.58;;
31210;SDS011;17836;50.948;3.946;2023-03-31T08:09:21;21.42;;;5.00;;
31210;SDS011;17836;50.948;3.946;2023-03-31T08:11:46;21.25;;;4.75;;
31210;SDS011;17836;50.948;3.946;2023-03-31T08:14:11;22.52;;;5.60;;
31210;SDS011;17836;50.948;3.946;2023-03-31T08:16:37;16.45;;;4.30;;
31210;SDS011;17836;50.948;3.946;2023-03-31T08:19:02;21.47;;;3.77;;
31210;SDS011;17836;50.948;3.946;2023-03-31T08:21:28;14.90;;;4.03;;
31210;SDS011;17836;50.948;3.946;2023-03-31T08:23:54;14.52;;;3.92;;
31210;SDS011;17836;50.948;3.946;2023-03-31T08:26:19;17.98;;;4.43;;
31210;SDS011;17836;50.948;3.946;2023-03-31T08:28:46;17.33;;;3.72;;
31210;SDS011;17836;50.948;3.946;2023-03-31T08:31:13;13.38;;;3.75;;
31210;SDS011;17836;50.948;3.946;2023-03-31T08:33:40;12.68;;;3.95;;
31210;SDS011;17836;50.948;3.946;2023-03-31T08:36:06;17.17;;;4.72;;
31210;SDS011;17836;50.948;3.946;2023-03-31T08:38:35;20.20;;;4.35;;
31210;SDS011;17836;50.948;3.946;2023-03-31T08:41:02;14.52;;;3.83;;
31210;SDS011;17836;50.948;3.946;2023-03-31T08:43:32;14.30;;;3.65;;
31210;SDS011;17836;50.948;3.946;2023-03-31T08:46:00;14.40;;;3.38;;
31210;SDS011;17836;50.948;3.946;2023-03-31T08:48:28;13.13;;;2.95;;
31210;SDS011;17836;50.948;3.946;2023-03-31T08:54:02;18.52;;;3.47;;
31210;SDS011;17836;50.948;3.946;2023-03-31T08:56:32;18.73;;;4.00;;
31210;SDS011;17836;50.948;3.946;2023-03-31T08:58:58;17.80;;;3.55;;
31210;SDS011;17836;50.948;3.946;2023-03-31T09:09:29;21.17;;;4.50;;
31210;SDS011;17836;50.948;3.946;2023-03-31T09:11:57;16.77;;;4.00;;
31210;SDS011;17836;50.948;3.946;2023-03-31T09:22:02;21.05;;;4.05;;
31210;SDS011;17836;50.948;3.946;2023-03-31T09:24:33;21.75;;;6.07;;
31210;SDS011;17836;50.948;3.946;2023-03-31T09:27:01;19.77;;;4.65;;
31210;SDS011;17836;50.948;3.946;2023-03-31T09:29:29;13.82;;;3.92;;
31210;SDS011;17836;50.948;3.946;2023-03-31T09:32:00;24.50;;;5.45;;
31210;SDS011;17836;50.948;3.946;2023-03-31T09:34:29;23.50;;;5.03;;
31210;SDS011;17836;50.948;3.946;2023-03-31T09:36:58;19.48;;;5.13;;
31210;SDS011;17836;50.948;3.946;2023-03-31T09:39:23;19.38;;;3.67;;
31210;SDS011;17836;50.948;3.946;2023-03-31T09:41:49;15.37;;;4.50;;
31210;SDS011;17836;50.948;3.946;2023-03-31T09:44:25;24.25;;;5.25;;
31210;SDS011;17836;50.948;3.946;2023-03-31T09:46:54;24.23;;;5.03;;
31210;SDS011;17836;50.948;3.946;2023-03-31T09:49:26;22.70;;;5.40;;
31210;SDS011;17836;50.948;3.946;2023-03-31T09:51:58;19.48;;;4.90;;
31210;SDS011;17836;50.948;3.946;2023-03-31T09:56:57;20.40;;;4.43;;
31210;SDS011;17836;50.948;3.946;2023-03-31T09:59:23;21.03;;;4.57;;
31210;SDS011;17836;50.948;3.946;2023-03-31T10:01:57;23.92;;;4.65;;
31210;SDS011;17836;50.948;3.946;2023-03-31T10:04:25;23.73;;;5.30;;
31210;SDS011;17836;50.948;3.946;2023-03-31T10:06:52;28.05;;;5.72;;
31210;SDS011;17836;50.948;3.946;2023-03-31T10:09:18;21.67;;;4.38;;
31210;SDS011;17836;50.948;3.946;2023-03-31T10:11:56;16.95;;;3.90;;
31210;SDS011;17836;50.948;3.946;2023-03-31T10:14:26;22.08;;;4.05;;
31210;SDS011;17836;50.948;3.946;2023-03-31T10:16:58;16.17;;;3.83;;
31210;SDS011;17836;50.948;3.946;2023-03-31T10:19:27;16.35;;;4.40;;
31210;SDS011;17836;50.948;3.946;2023-03-31T10:21:56;25.08;;;4.78;;
31210;SDS011;17836;50.948;3.946;2023-03-31T10:24:22;17.30;;;3.92;;
31210;SDS011;17836;50.948;3.946;2023-03-31T10:26:48;24.77;;;4.93;;
31210;SDS011;17836;50.948;3.946;2023-03-31T10:29:20;18.13;;;4.13;;
31210;SDS011;17836;50.948;3.946;2023-03-31T10:31:49;21.45;;;4.35;;
31210;SDS011;17836;50.948;3.946;2023-03-31T10:34:15;19.55;;;4.57;;
31210;SDS011;17836;50.948;3.946;2023-03-31T10:36:48;18.98;;;3.95;;
31210;SDS011;17836;50.948;3.946;2023-03-31T10:39:14;15.95;;;3.60;;
31210;SDS011;17836;50.948;3.946;2023-03-31T10:41:40;16.77;;;4.47;;
31210;SDS011;17836;50.948;3.946;2023-03-31T10:44:28;17.38;;;4.18;;
31210;SDS011;17836;50.948;3.946;2023-03-31T10:46:53;12.77;;;3.60;;
31210;SDS011;17836;50.948;3.946;2023-03-31T10:49:23;14.47;;;3.27;;
31210;SDS011;17836;50.948;3.946;2023-03-31T10:51:53;13.82;;;3.38;;
31210;SDS011;17836;50.948;3.946;2023-03-31T10:54:19;14.45;;;3.47;;
31210;SDS011;17836;50.948;3.946;2023-03-31T10:56:45;11.13;;;3.13;;
31210;SDS011;17836;50.948;3.946;2023-03-31T11:12:30;13.52;;;2.60;;
31210;SDS011;17836;50.948;3.946;2023-03-31T11:23:22;13.20;;;2.78;;
31210;SDS011;17836;50.948;3.946;2023-03-31T11:26:02;11.13;;;3.22;;
31210;SDS011;17836;50.948;3.946;2023-03-31T11:33:42;12.18;;;2.63;;
31210;SDS011;17836;50.948;3.946;2023-03-31T11:38:49;10.57;;;2.57;;
31210;SDS011;17836;50.948;3.946;2023-03-31T11:41:20;16.80;;;3.70;;
31210;SDS011;17836;50.948;3.946;2023-03-31T11:48:49;13.18;;;3.53;;
31210;SDS011;17836;50.948;3.946;2023-03-31T11:51:25;10.27;;;2.22;;
31210;SDS011;17836;50.948;3.946;2023-03-31T11:53:53;8.65;;;2.58;;
31210;SDS011;17836;50.948;3.946;2023-03-31T11:56:20;11.05;;;2.83;;
31210;SDS011;17836;50.948;3.946;2023-03-31T11:58:48;8.55;;;2.42;;
31210;SDS011;17836;50.948;3.946;2023-03-31T12:06:16;10.48;;;2.50;;
31210;SDS011;17836;50.948;3.946;2023-03-31T12:11:13;6.22;;;1.88;;
31210;SDS011;17836;50.948;3.946;2023-03-31T12:13:45;6.00;;;1.33;;
31210;SDS011;17836;50.948;3.946;2023-03-31T12:16:22;5.65;;;1.33;;
31210;SDS011;17836;50.948;3.946;2023-03-31T12:18:55;6.75;;;1.42;;
31210;SDS011;17836;50.948;3.946;2023-03-31T12:21:22;4.40;;;1.20;;
31210;SDS011;17836;50.948;3.946;2023-03-31T12:23:49;3.53;;;1.45;;
31210;SDS011;17836;50.948;3.946;2023-03-31T12:26:34;6.57;;;1.83;;
31210;SDS011;17836;50.948;3.946;2023-03-31T12:29:16;5.22;;;1.70;;
31210;SDS011;17836;50.948;3.946;2023-03-31T12:31:44;5.55;;;1.80;;
31210;SDS011;17836;50.948;3.946;2023-03-31T12:34:13;4.40;;;1.90;;
31210;SDS011;17836;50.948;3.946;2023-03-31T12:39:27;7.82;;;1.95;;
31210;SDS011;17836;50.948;3.946;2023-03-31T12:45:00;4.55;;;1.38;;
31210;SDS011;17836;50.948;3.946;2023-03-31T12:47:35;6.88;;;1.30;;
31210;SDS011;17836;50.948;3.946;2023-03-31T12:50:08;6.50;;;2.15;;
31210;SDS011;17836;50.948;3.946;2023-03-31T12:57:46;4.05;;;1.40;;
31210;SDS011;17836;50.948;3.946;2023-03-31T13:00:44;5.80;;;1.00;;
31210;SDS011;17836;50.948;3.946;2023-03-31T13:05:47;3.47;;;1.00;;
31210;SDS011;17836;50.948;3.946;2023-03-31T13:08:47;3.70;;;1.08;;
31210;SDS011;17836;50.948;3.946;2023-03-31T13:10:58;3.22;;;0.95;;
31210;SDS011;17836;50.948;3.946;2023-03-31T13:13:23;3.95;;;1.05;;
31210;SDS011;17836;50.948;3.946;2023-03-31T13:15:50;2.67;;;0.52;;
31210;SDS011;17836;50.948;3.946;2023-03-31T13:18:17;2.13;;;0.85;;
31210;SDS011;17836;50.948;3.946;2023-03-31T13:20:44;2.67;;;0.70;;
31210;SDS011;17836;50.948;3.946;2023-03-31T13:28:14;1.33;;;0.60;;
31210;SDS011;17836;50.948;3.946;2023-03-31T13:33:09;2.87;;;0.87;;
31210;SDS011;17836;50.948;3.946;2023-03-31T13:35:36;1.17;;;0.47;;
31210;SDS011;17836;50.948;3.946;2023-03-31T13:38:08;4.40;;;0.85;;
31210;SDS011;17836;50.948;3.946;2023-03-31T13:51:25;1.65;;;0.50;;
31210;SDS011;17836;50.948;3.946;2023-03-31T13:56:29;3.10;;;0.60;;
31210;SDS011;17836;50.948;3.946;2023-03-31T14:07:08;1.23;;;0.50;;
31210;SDS011;17836;50.948;3.946;2023-03-31T14:09:35;1.88;;;0.73;;
31210;SDS011;17836;50.948;3.946;2023-03-31T14:12:30;2.88;;;0.65;;
31210;SDS011;17836;50.948;3.946;2023-03-31T14:14:55;3.20;;;0.98;;
31210;SDS011;17836;50.948;3.946;2023-03-31T14:17:22;1.83;;;0.70;;
31210;SDS011;17836;50.948;3.946;2023-03-31T14:25:21;1.02;;;0.85;;
31210;SDS011;17836;50.948;3.946;2023-03-31T14:27:59;2.47;;;0.73;;
31210;SDS011;17836;50.948;3.946;2023-03-31T14:38:12;3.00;;;0.77;;
31210;SDS011;17836;50.948;3.946;2023-03-31T14:40:44;1.67;;;0.80;;
31210;SDS011;17836;50.948;3.946;2023-03-31T14:43:20;2.00;;;0.75;;
31210;SDS011;17836;50.948;3.946;2023-03-31T14:45:46;2.60;;;0.90;;
31210;SDS011;17836;50.948;3.946;2023-03-31T14:48:13;4.63;;;1.95;;
31210;SDS011;17836;50.948;3.946;2023-03-31T14:50:44;1.85;;;0.60;;
31210;SDS011;17836;50.948;3.946;2023-03-31T14:53:13;3.08;;;0.82;;
31210;SDS011;17836;50.948;3.946;2023-03-31T14:55:38;1.48;;;0.68;;
31210;SDS011;17836;50.948;3.946;2023-03-31T14:58:04;2.42;;;0.77;;
31210;SDS011;17836;50.948;3.946;2023-03-31T15:00:30;2.22;;;0.60;;
31210;SDS011;17836;50.948;3.946;2023-03-31T15:03:00;2.92;;;0.90;;
31210;SDS011;17836;50.948;3.946;2023-03-31T15:05:29;2.00;;;0.70;;
31210;SDS011;17836;50.948;3.946;2023-03-31T15:08:05;3.80;;;1.17;;
31210;SDS011;17836;50.948;3.946;2023-03-31T15:10:34;10.27;;;1.92;;
31210;SDS011;17836;50.948;3.946;2023-03-31T15:13:00;5.78;;;1.65;;
31210;SDS011;17836;50.948;3.946;2023-03-31T15:15:26;12.50;;;2.60;;
31210;SDS011;17836;50.948;3.946;2023-03-31T15:17:51;9.70;;;2.08;;
31210;SDS011;17836;50.948;3.946;2023-03-31T15:22:52;7.85;;;1.75;;
31210;SDS011;17836;50.948;3.946;2023-03-31T15:25:20;12.77;;;1.90;;
31210;SDS011;17836;50.948;3.946;2023-03-31T15:27:53;10.23;;;2.60;;
31210;SDS011;17836;50.948;3.946;2023-03-31T15:30:22;7.47;;;2.55;;
31210;SDS011;17836;50.948;3.946;2023-03-31T15:32:50;13.98;;;3.25;;
31210;SDS011;17836;50.948;3.946;2023-03-31T15:35:20;10.95;;;3.00;;
31210;SDS011;17836;50.948;3.946;2023-03-31T15:37:46;9.45;;;2.58;;
31210;SDS011;17836;50.948;3.946;2023-03-31T15:42:43;9.23;;;2.42;;
31210;SDS011;17836;50.948;3.946;2023-03-31T15:47:37;9.32;;;2.45;;
31210;SDS011;17836;50.948;3.946;2023-03-31T15:50:11;8.32;;;1.88;;
31210;SDS011;17836;50.948;3.946;2023-03-31T15:52:48;9.55;;;1.90;;
31210;SDS011;17836;50.948;3.946;2023-03-31T15:55:38;9.90;;;2.00;;
31210;SDS011;17836;50.948;3.946;2023-03-31T15:58:04;9.25;;;2.28;;
31210;SDS011;17836;50.948;3.946;2023-03-31T16:02:56;7.55;;;2.05;;
31210;SDS011;17836;50.948;3.946;2023-03-31T16:07:53;6.05;;;1.58;;
31210;SDS011;17836;50.948;3.946;2023-03-31T16:10:21;8.77;;;2.13;;
31210;SDS011;17836;50.948;3.946;2023-03-31T16:12:54;6.78;;;1.52;;
31210;SDS011;17836;50.948;3.946;2023-03-31T16:15:22;4.57;;;1.50;;
31210;SDS011;17836;50.948;3.946;2023-03-31T16:17:53;5.78;;;1.63;;
31210;SDS011;17836;50.948;3.946;2023-03-31T16:20:30;6.22;;;1.77;;
31210;SDS011;17836;50.948;3.946;2023-03-31T16:22:56;6.20;;;1.63;;
31210;SDS011;17836;50.948;3.946;2023-03-31T16:25:23;6.13;;;2.05;;
31210;SDS011;17836;50.948;3.946;2023-03-31T16:27:59;10.02;;;2.42;;
31210;SDS011;17836;50.948;3.946;2023-03-31T16:35:28;9.38;;;2.45;;
31210;SDS011;17836;50.948;3.946;2023-03-31T16:37:54;7.18;;;2.33;;
31210;SDS011;17836;50.948;3.946;2023-03-31T16:40:19;8.60;;;2.23;;
31210;SDS011;17836;50.948;3.946;2023-03-31T16:42:45;10.07;;;2.28;;
31210;SDS011;17836;50.948;3.946;2023-03-31T16:45:10;7.95;;;2.25;;
31210;SDS011;17836;50.948;3.946;2023-03-31T16:47:38;10.25;;;2.42;;
31210;SDS011;17836;50.948;3.946;2023-03-31T16:50:03;7.30;;;1.90;;
31210;SDS011;17836;50.948;3.946;2023-03-31T16:52:31;8.32;;;2.35;;
31210;SDS011;17836;50.948;3.946;2023-03-31T16:54:56;14.00;;;2.80;;
31210;SDS011;17836;50.948;3.946;2023-03-31T16:57:21;13.15;;;3.10;;
31210;SDS011;17836;50.948;3.946;2023-03-31T16:59:47;11.10;;;2.53;;
31210;SDS011;17836;50.948;3.946;2023-03-31T17:02:14;21.65;;;3.92;;
31210;SDS011;17836;50.948;3.946;2023-03-31T17:04:40;14.45;;;4.20;;
31210;SDS011;17836;50.948;3.946;2023-03-31T17:07:05;16.30;;;3.63;;
31210;SDS011;17836;50.948;3.946;2023-03-31T17:09:30;18.63;;;3.78;;
31210;SDS011;17836;50.948;3.946;2023-03-31T17:11:56;18.95;;;3.50;;
31210;SDS011;17836;50.948;3.946;2023-03-31T17:14:27;12.90;;;2.97;;
31210;SDS011;17836;50.948;3.946;2023-03-31T17:16:52;18.02;;;3.80;;
31210;SDS011;17836;50.948;3.946;2023-03-31T17:19:17;13.47;;;4.03;;
31210;SDS011;17836;50.948;3.946;2023-03-31T17:21:43;19.63;;;3.97;;
31210;SDS011;17836;50.948;3.946;2023-03-31T17:24:08;14.90;;;3.37;;
31210;SDS011;17836;50.948;3.946;2023-03-31T17:26:34;14.68;;;3.53;;
31210;SDS011;17836;50.948;3.946;2023-03-31T17:29:01;13.40;;;3.10;;
31210;SDS011;17836;50.948;3.946;2023-03-31T17:31:27;17.65;;;4.40;;
31210;SDS011;17836;50.948;3.946;2023-03-31T17:33:52;10.82;;;3.20;;
31210;SDS011;17836;50.948;3.946;2023-03-31T17:36:18;13.30;;;3.03;;
31210;SDS011;17836;50.948;3.946;2023-03-31T17:38:43;13.57;;;3.00;;
31210;SDS011;17836;50.948;3.946;2023-03-31T17:41:10;14.45;;;3.25;;
31210;SDS011;17836;50.948;3.946;2023-03-31T17:43:36;13.18;;;3.70;;
31210;SDS011;17836;50.948;3.946;2023-03-31T17:46:03;17.15;;;3.38;;
31210;SDS011;17836;50.948;3.946;2023-03-31T17:48:29;16.13;;;3.60;;
31210;SDS011;17836;50.948;3.946;2023-03-31T17:50:54;16.63;;;3.28;;